sensor_id;sensor_type;location;lat;lon;timestamp;P1;durP1;ratioP1;P2;durP2;ratioP2
42478;SDS011;28110;47.080;9.476;2023-08-17T00:01:25;2.77;;;1.53;;
42478;SDS011;28110;47.080;9.476;2023-08-17T00:03:50;1.70;;;1.30;;
42478;SDS011;28110;47.080;9.476;2023-08-17T00:06:16;2.00;;;1.40;;
42478;SDS011;28110;47.080;9.476;2023-08-17T00:08:41;1.73;;;1.43;;
42478;SDS011;28110;47.080;9.476;2023-08-17T00:11:07;1.92;;;1.50;;
42478;SDS011;28110;47.080;9.476;2023-08-17T00:13:33;1.63;;;1.40;;
42478;SDS011;28110;47.080;9.476;2023-08-17T00:15:59;2.00;;;1.33;;
42478;SDS011;28110;47.080;9.476;2023-08-17T00:18:25;1.77;;;1.17;;
42478;SDS011;28110;47.080;9.476;2023-08-17T00:20:50;3.83;;;1.40;;
42478;SDS011;28110;47.080;9.476;2023-08-17T00:23:16;3.27;;;1.40;;
42478;SDS011;28110;47.080;9.476;2023-08-17T00:25:41;1.90;;;1.40;;
42478;SDS011;28110;47.080;9.476;2023-08-17T00:28:07;2.03;;;1.40;;
42478;SDS011;28110;47.080;9.476;2023-08-17T00:30:32;2.30;;;1.47;;
42478;SDS011;28110;47.080;9.476;2023-08-17T00:33:01;2.60;;;1.50;;
42478;SDS011;28110;47.080;9.476;2023-08-17T00:35:27;4.50;;;1.50;;
42478;SDS011;28110;47.080;9.476;2023-08-17T00:37:52;10.93;;;2.00;;
42478;SDS011;28110;47.080;9.476;2023-08-17T00:40:18;2.77;;;1.50;;
42478;SDS011;28110;47.080;9.476;2023-08-17T00:42:44;2.27;;;1.53;;
42478;SDS011;28110;47.080;9.476;2023-08-17T00:45:09;2.95;;;1.50;;
42478;SDS011;28110;47.080;9.476;2023-08-17T00:47:35;2.40;;;1.40;;
42478;SDS011;28110;47.080;9.476;2023-08-17T00:50:01;3.53;;;1.60;;
42478;SDS011;28110;47.080;9.476;2023-08-17T00:52:27;2.37;;;1.57;;
42478;SDS011;28110;47.080;9.476;2023-08-17T00:54:53;2.67;;;1.67;;
42478;SDS011;28110;47.080;9.476;2023-08-17T00:57:20;2.28;;;1.45;;
42478;SDS011;28110;47.080;9.476;2023-08-17T00:59:46;2.13;;;1.40;;
42478;SDS011;28110;47.080;9.476;2023-08-17T01:02:12;4.27;;;1.57;;
42478;SDS011;28110;47.080;9.476;2023-08-17T01:04:37;3.42;;;1.80;;
42478;SDS011;28110;47.080;9.476;2023-08-17T01:07:03;3.27;;;1.80;;
42478;SDS011;28110;47.080;9.476;2023-08-17T01:09:28;1.70;;;1.53;;
42478;SDS011;28110;47.080;9.476;2023-08-17T01:12:02;3.95;;;1.67;;
42478;SDS011;28110;47.080;9.476;2023-08-17T01:20:06;3.23;;;1.60;;
42478;SDS011;28110;47.080;9.476;2023-08-17T01:22:37;2.72;;;1.70;;
42478;SDS011;28110;47.080;9.476;2023-08-17T01:25:06;3.08;;;1.73;;
42478;SDS011;28110;47.080;9.476;2023-08-17T01:27:54;3.38;;;1.65;;
42478;SDS011;28110;47.080;9.476;2023-08-17T01:30:19;1.95;;;1.70;;
42478;SDS011;28110;47.080;9.476;2023-08-17T01:32:49;2.57;;;1.50;;
42478;SDS011;28110;47.080;9.476;2023-08-17T01:35:43;2.97;;;1.60;;
42478;SDS011;28110;47.080;9.476;2023-08-17T01:38:14;1.55;;;1.33;;
42478;SDS011;28110;47.080;9.476;2023-08-17T01:40:44;5.05;;;2.30;;
42478;SDS011;28110;47.080;9.476;2023-08-17T01:43:11;3.43;;;1.57;;
42478;SDS011;28110;47.080;9.476;2023-08-17T01:45:37;3.30;;;1.58;;
42478;SDS011;28110;47.080;9.476;2023-08-17T01:48:03;2.13;;;1.70;;
42478;SDS011;28110;47.080;9.476;2023-08-17T01:50:29;2.28;;;1.70;;
42478;SDS011;28110;47.080;9.476;2023-08-17T01:52:54;2.67;;;1.40;;
42478;SDS011;28110;47.080;9.476;2023-08-17T01:55:20;2.67;;;1.80;;
42478;SDS011;28110;47.080;9.476;2023-08-17T01:57:46;3.13;;;1.67;;
42478;SDS011;28110;47.080;9.476;2023-08-17T02:00:12;4.40;;;1.52;;
42478;SDS011;28110;47.080;9.476;2023-08-17T02:02:38;3.63;;;1.60;;
42478;SDS011;28110;47.080;9.476;2023-08-17T02:05:03;2.67;;;1.60;;
42478;SDS011;28110;47.080;9.476;2023-08-17T02:07:29;2.92;;;1.63;;
42478;SDS011;28110;47.080;9.476;2023-08-17T02:09:55;2.17;;;1.60;;
42478;SDS011;28110;47.080;9.476;2023-08-17T02:12:20;2.83;;;1.33;;
42478;SDS011;28110;47.080;9.476;2023-08-17T02:14:46;3.17;;;1.70;;
42478;SDS011;28110;47.080;9.476;2023-08-17T02:17:11;5.23;;;1.60;;
42478;SDS011;28110;47.080;9.476;2023-08-17T02:19:37;3.83;;;1.50;;
42478;SDS011;28110;47.080;9.476;2023-08-17T02:22:03;3.45;;;1.60;;
42478;SDS011;28110;47.080;9.476;2023-08-17T02:24:29;4.05;;;1.48;;
42478;SDS011;28110;47.080;9.476;2023-08-17T02:26:55;5.63;;;1.70;;
42478;SDS011;28110;47.080;9.476;2023-08-17T02:29:20;2.20;;;1.70;;
42478;SDS011;28110;47.080;9.476;2023-08-17T02:31:46;1.90;;;1.60;;
42478;SDS011;28110;47.080;9.476;2023-08-17T02:34:11;1.63;;;1.43;;
42478;SDS011;28110;47.080;9.476;2023-08-17T02:36:37;5.70;;;1.53;;
42478;SDS011;28110;47.080;9.476;2023-08-17T02:39:02;3.03;;;1.65;;
42478;SDS011;28110;47.080;9.476;2023-08-17T02:41:28;4.53;;;1.50;;
42478;SDS011;28110;47.080;9.476;2023-08-17T02:43:55;3.47;;;1.70;;
42478;SDS011;28110;47.080;9.476;2023-08-17T02:46:21;2.67;;;1.60;;
42478;SDS011;28110;47.080;9.476;2023-08-17T02:48:46;4.03;;;1.60;;
42478;SDS011;28110;47.080;9.476;2023-08-17T02:51:12;2.17;;;1.55;;
42478;SDS011;28110;47.080;9.476;2023-08-17T02:53:38;2.57;;;1.50;;
42478;SDS011;28110;47.080;9.476;2023-08-17T02:56:04;2.20;;;1.40;;
42478;SDS011;28110;47.080;9.476;2023-08-17T02:58:29;3.67;;;1.83;;
42478;SDS011;28110;47.080;9.476;2023-08-17T03:00:55;2.90;;;1.60;;
42478;SDS011;28110;47.080;9.476;2023-08-17T03:03:20;6.13;;;1.90;;
42478;SDS011;28110;47.080;9.476;2023-08-17T03:05:46;3.35;;;1.75;;
42478;SDS011;28110;47.080;9.476;2023-08-17T03:08:11;2.13;;;1.63;;
42478;SDS011;28110;47.080;9.476;2023-08-17T03:10:37;2.50;;;1.80;;
42478;SDS011;28110;47.080;9.476;2023-08-17T03:13:03;2.47;;;1.50;;
42478;SDS011;28110;47.080;9.476;2023-08-17T03:15:29;2.35;;;1.70;;
42478;SDS011;28110;47.080;9.476;2023-08-17T03:17:54;3.73;;;1.80;;
42478;SDS011;28110;47.080;9.476;2023-08-17T03:20:20;2.65;;;1.60;;
42478;SDS011;28110;47.080;9.476;2023-08-17T03:22:46;2.63;;;1.53;;
42478;SDS011;28110;47.080;9.476;2023-08-17T03:25:11;4.38;;;1.50;;
42478;SDS011;28110;47.080;9.476;2023-08-17T03:27:37;2.40;;;1.63;;
42478;SDS011;28110;47.080;9.476;2023-08-17T03:30:03;2.47;;;1.40;;
42478;SDS011;28110;47.080;9.476;2023-08-17T03:32:29;2.92;;;1.70;;
42478;SDS011;28110;47.080;9.476;2023-08-17T03:34:55;2.50;;;1.57;;
42478;SDS011;28110;47.080;9.476;2023-08-17T03:37:20;2.83;;;1.70;;
42478;SDS011;28110;47.080;9.476;2023-08-17T03:39:46;3.57;;;1.80;;
42478;SDS011;28110;47.080;9.476;2023-08-17T03:42:11;2.90;;;1.87;;
42478;SDS011;28110;47.080;9.476;2023-08-17T03:44:37;3.80;;;1.50;;
42478;SDS011;28110;47.080;9.476;2023-08-17T03:47:02;3.40;;;1.70;;
42478;SDS011;28110;47.080;9.476;2023-08-17T03:49:28;2.30;;;1.20;;
42478;SDS011;28110;47.080;9.476;2023-08-17T03:51:53;2.17;;;1.58;;
42478;SDS011;28110;47.080;9.476;2023-08-17T03:54:19;5.93;;;1.60;;
42478;SDS011;28110;47.080;9.476;2023-08-17T03:56:45;3.77;;;1.63;;
42478;SDS011;28110;47.080;9.476;2023-08-17T03:59:10;3.92;;;1.45;;
42478;SDS011;28110;47.080;9.476;2023-08-17T04:01:36;3.27;;;1.73;;
42478;SDS011;28110;47.080;9.476;2023-08-17T04:04:01;2.50;;;1.53;;
42478;SDS011;28110;47.080;9.476;2023-08-17T04:06:27;2.28;;;1.48;;
42478;SDS011;28110;47.080;9.476;2023-08-17T04:08:52;2.33;;;1.50;;
42478;SDS011;28110;47.080;9.476;2023-08-17T04:11:18;2.47;;;1.50;;
42478;SDS011;28110;47.080;9.476;2023-08-17T04:13:43;2.80;;;1.40;;
42478;SDS011;28110;47.080;9.476;2023-08-17T04:16:09;2.10;;;1.70;;
42478;SDS011;28110;47.080;9.476;2023-08-17T04:18:35;1.60;;;1.50;;
42478;SDS011;28110;47.080;9.476;2023-08-17T04:21:00;3.53;;;1.70;;
42478;SDS011;28110;47.080;9.476;2023-08-17T04:23:26;3.30;;;1.70;;
42478;SDS011;28110;47.080;9.476;2023-08-17T04:25:53;3.42;;;1.60;;
42478;SDS011;28110;47.080;9.476;2023-08-17T04:28:19;4.17;;;1.60;;
42478;SDS011;28110;47.080;9.476;2023-08-17T04:30:44;1.50;;;1.40;;
42478;SDS011;28110;47.080;9.476;2023-08-17T04:33:10;2.43;;;1.33;;
42478;SDS011;28110;47.080;9.476;2023-08-17T04:35:35;2.30;;;1.80;;
42478;SDS011;28110;47.080;9.476;2023-08-17T04:38:01;2.63;;;1.60;;
42478;SDS011;28110;47.080;9.476;2023-08-17T04:40:27;1.63;;;1.53;;
42478;SDS011;28110;47.080;9.476;2023-08-17T04:42:52;3.45;;;1.55;;
42478;SDS011;28110;47.080;9.476;2023-08-17T04:45:18;2.03;;;1.67;;
42478;SDS011;28110;47.080;9.476;2023-08-17T04:47:44;2.08;;;1.83;;
42478;SDS011;28110;47.080;9.476;2023-08-17T04:50:09;5.23;;;1.67;;
42478;SDS011;28110;47.080;9.476;2023-08-17T04:52:37;2.35;;;1.50;;
42478;SDS011;28110;47.080;9.476;2023-08-17T04:55:03;1.77;;;1.43;;
42478;SDS011;28110;47.080;9.476;2023-08-17T04:57:28;1.98;;;1.30;;
42478;SDS011;28110;47.080;9.476;2023-08-17T04:59:54;2.17;;;1.63;;
42478;SDS011;28110;47.080;9.476;2023-08-17T05:02:20;3.27;;;1.60;;
42478;SDS011;28110;47.080;9.476;2023-08-17T05:04:46;5.45;;;2.13;;
42478;SDS011;28110;47.080;9.476;2023-08-17T05:07:11;2.53;;;1.75;;
42478;SDS011;28110;47.080;9.476;2023-08-17T05:09:37;2.30;;;1.63;;
42478;SDS011;28110;47.080;9.476;2023-08-17T05:12:02;2.83;;;1.53;;
42478;SDS011;28110;47.080;9.476;2023-08-17T05:14:28;3.10;;;1.52;;
42478;SDS011;28110;47.080;9.476;2023-08-17T05:16:54;2.90;;;1.50;;
42478;SDS011;28110;47.080;9.476;2023-08-17T05:19:19;3.13;;;1.80;;
42478;SDS011;28110;47.080;9.476;2023-08-17T05:21:45;2.45;;;1.50;;
42478;SDS011;28110;47.080;9.476;2023-08-17T05:24:10;2.20;;;1.60;;
42478;SDS011;28110;47.080;9.476;2023-08-17T05:26:36;1.63;;;1.17;;
42478;SDS011;28110;47.080;9.476;2023-08-17T05:29:01;2.78;;;1.55;;
42478;SDS011;28110;47.080;9.476;2023-08-17T05:31:27;3.10;;;1.50;;
42478;SDS011;28110;47.080;9.476;2023-08-17T05:33:52;3.60;;;1.73;;
42478;SDS011;28110;47.080;9.476;2023-08-17T05:36:18;3.00;;;1.63;;
42478;SDS011;28110;47.080;9.476;2023-08-17T05:38:43;2.00;;;1.80;;
42478;SDS011;28110;47.080;9.476;2023-08-17T05:41:09;2.10;;;1.60;;
42478;SDS011;28110;47.080;9.476;2023-08-17T05:43:34;3.77;;;1.83;;
42478;SDS011;28110;47.080;9.476;2023-08-17T05:46:00;3.93;;;2.17;;
42478;SDS011;28110;47.080;9.476;2023-08-17T05:48:26;2.70;;;1.67;;
42478;SDS011;28110;47.080;9.476;2023-08-17T05:50:51;2.67;;;1.40;;
42478;SDS011;28110;47.080;9.476;2023-08-17T05:53:17;4.60;;;1.77;;
42478;SDS011;28110;47.080;9.476;2023-08-17T05:55:42;4.05;;;1.92;;
42478;SDS011;28110;47.080;9.476;2023-08-17T05:58:09;1.80;;;1.70;;
42478;SDS011;28110;47.080;9.476;2023-08-17T06:00:34;2.47;;;1.60;;
42478;SDS011;28110;47.080;9.476;2023-08-17T06:03:00;4.80;;;1.60;;
42478;SDS011;28110;47.080;9.476;2023-08-17T06:05:26;2.30;;;1.65;;
42478;SDS011;28110;47.080;9.476;2023-08-17T06:07:53;5.60;;;2.00;;
42478;SDS011;28110;47.080;9.476;2023-08-17T06:10:19;2.07;;;1.70;;
42478;SDS011;28110;47.080;9.476;2023-08-17T06:12:45;2.15;;;1.65;;
42478;SDS011;28110;47.080;9.476;2023-08-17T06:15:11;2.93;;;1.90;;
42478;SDS011;28110;47.080;9.476;2023-08-17T06:17:36;1.75;;;1.60;;
42478;SDS011;28110;47.080;9.476;2023-08-17T06:20:02;5.73;;;1.80;;
42478;SDS011;28110;47.080;9.476;2023-08-17T06:22:28;5.70;;;1.80;;
42478;SDS011;28110;47.080;9.476;2023-08-17T06:24:53;3.23;;;1.73;;
42478;SDS011;28110;47.080;9.476;2023-08-17T06:27:19;3.65;;;1.70;;
42478;SDS011;28110;47.080;9.476;2023-08-17T06:29:45;4.20;;;1.77;;
42478;SDS011;28110;47.080;9.476;2023-08-17T06:32:10;1.67;;;1.57;;
42478;SDS011;28110;47.080;9.476;2023-08-17T06:34:36;4.10;;;1.85;;
42478;SDS011;28110;47.080;9.476;2023-08-17T06:37:02;4.60;;;1.67;;
42478;SDS011;28110;47.080;9.476;2023-08-17T06:39:28;3.20;;;1.60;;
42478;SDS011;28110;47.080;9.476;2023-08-17T06:41:54;2.55;;;1.60;;
42478;SDS011;28110;47.080;9.476;2023-08-17T06:44:19;2.50;;;1.50;;
42478;SDS011;28110;47.080;9.476;2023-08-17T06:46:45;2.22;;;1.55;;
42478;SDS011;28110;47.080;9.476;2023-08-17T06:49:11;4.83;;;1.70;;
42478;SDS011;28110;47.080;9.476;2023-08-17T06:51:37;1.42;;;1.33;;
42478;SDS011;28110;47.080;9.476;2023-08-17T06:54:03;7.32;;;1.80;;
42478;SDS011;28110;47.080;9.476;2023-08-17T06:56:30;3.65;;;1.60;;
42478;SDS011;28110;47.080;9.476;2023-08-17T06:58:56;2.90;;;1.60;;
42478;SDS011;28110;47.080;9.476;2023-08-17T07:01:21;2.93;;;1.70;;
42478;SDS011;28110;47.080;9.476;2023-08-17T07:03:47;3.05;;;1.70;;
42478;SDS011;28110;47.080;9.476;2023-08-17T07:06:12;3.07;;;1.63;;
42478;SDS011;28110;47.080;9.476;2023-08-17T07:08:38;3.45;;;1.63;;
42478;SDS011;28110;47.080;9.476;2023-08-17T07:11:04;5.03;;;2.00;;
42478;SDS011;28110;47.080;9.476;2023-08-17T07:13:30;2.88;;;1.75;;
42478;SDS011;28110;47.080;9.476;2023-08-17T07:15:56;2.92;;;1.73;;
42478;SDS011;28110;47.080;9.476;2023-08-17T07:18:22;2.50;;;2.13;;
42478;SDS011;28110;47.080;9.476;2023-08-17T07:20:47;4.10;;;1.73;;
42478;SDS011;28110;47.080;9.476;2023-08-17T07:23:14;4.37;;;2.00;;
42478;SDS011;28110;47.080;9.476;2023-08-17T07:25:40;2.53;;;1.85;;
42478;SDS011;28110;47.080;9.476;2023-08-17T07:28:05;5.43;;;1.77;;
42478;SDS011;28110;47.080;9.476;2023-08-17T07:30:31;4.15;;;1.90;;
42478;SDS011;28110;47.080;9.476;2023-08-17T07:32:56;1.43;;;1.33;;
42478;SDS011;28110;47.080;9.476;2023-08-17T07:35:22;2.90;;;1.70;;
42478;SDS011;28110;47.080;9.476;2023-08-17T07:37:47;3.38;;;1.80;;
42478;SDS011;28110;47.080;9.476;2023-08-17T07:40:13;2.13;;;1.50;;
42478;SDS011;28110;47.080;9.476;2023-08-17T07:42:38;4.50;;;1.70;;
42478;SDS011;28110;47.080;9.476;2023-08-17T07:45:04;4.40;;;2.00;;
42478;SDS011;28110;47.080;9.476;2023-08-17T07:47:33;3.67;;;1.93;;
42478;SDS011;28110;47.080;9.476;2023-08-17T07:50:00;3.97;;;1.80;;
42478;SDS011;28110;47.080;9.476;2023-08-17T07:52:25;4.97;;;2.38;;
42478;SDS011;28110;47.080;9.476;2023-08-17T07:54:51;2.27;;;1.60;;
42478;SDS011;28110;47.080;9.476;2023-08-17T07:57:16;2.60;;;1.73;;
42478;SDS011;28110;47.080;9.476;2023-08-17T07:59:42;3.28;;;1.98;;
42478;SDS011;28110;47.080;9.476;2023-08-17T08:02:07;4.17;;;1.87;;
42478;SDS011;28110;47.080;9.476;2023-08-17T08:04:33;6.67;;;2.43;;
42478;SDS011;28110;47.080;9.476;2023-08-17T08:06:58;2.58;;;1.70;;
42478;SDS011;28110;47.080;9.476;2023-08-17T08:09:24;3.63;;;1.77;;
42478;SDS011;28110;47.080;9.476;2023-08-17T08:11:49;3.83;;;1.83;;
42478;SDS011;28110;47.080;9.476;2023-08-17T08:14:16;4.18;;;1.70;;
42478;SDS011;28110;47.080;9.476;2023-08-17T08:16:42;2.78;;;2.38;;
42478;SDS011;28110;47.080;9.476;2023-08-17T08:19:07;4.10;;;1.83;;
42478;SDS011;28110;47.080;9.476;2023-08-17T08:21:33;5.15;;;2.10;;
42478;SDS011;28110;47.080;9.476;2023-08-17T08:23:58;3.17;;;1.87;;
42478;SDS011;28110;47.080;9.476;2023-08-17T08:26:24;2.80;;;1.80;;
42478;SDS011;28110;47.080;9.476;2023-08-17T08:28:49;4.25;;;2.00;;
42478;SDS011;28110;47.080;9.476;2023-08-17T08:31:15;4.43;;;2.10;;
42478;SDS011;28110;47.080;9.476;2023-08-17T08:33:40;3.27;;;1.77;;
42478;SDS011;28110;47.080;9.476;2023-08-17T08:36:06;3.63;;;1.83;;
42478;SDS011;28110;47.080;9.476;2023-08-17T08:38:31;4.70;;;1.90;;
42478;SDS011;28110;47.080;9.476;2023-08-17T08:40:57;3.97;;;1.73;;
42478;SDS011;28110;47.080;9.476;2023-08-17T08:43:23;3.20;;;1.75;;
42478;SDS011;28110;47.080;9.476;2023-08-17T08:45:50;2.08;;;1.67;;
42478;SDS011;28110;47.080;9.476;2023-08-17T08:48:18;3.58;;;1.85;;
42478;SDS011;28110;47.080;9.476;2023-08-17T08:50:44;2.40;;;1.70;;
42478;SDS011;28110;47.080;9.476;2023-08-17T08:53:15;2.20;;;2.00;;
42478;SDS011;28110;47.080;9.476;2023-08-17T08:55:52;3.72;;;1.70;;
42478;SDS011;28110;47.080;9.476;2023-08-17T08:58:22;2.03;;;1.50;;
42478;SDS011;28110;47.080;9.476;2023-08-17T09:00:49;6.68;;;1.80;;
42478;SDS011;28110;47.080;9.476;2023-08-17T09:03:15;2.30;;;1.90;;
42478;SDS011;28110;47.080;9.476;2023-08-17T09:05:48;4.63;;;2.20;;
42478;SDS011;28110;47.080;9.476;2023-08-17T09:08:15;2.60;;;1.90;;
42478;SDS011;28110;47.080;9.476;2023-08-17T09:10:45;3.93;;;1.80;;
42478;SDS011;28110;47.080;9.476;2023-08-17T09:13:12;5.25;;;2.38;;
42478;SDS011;28110;47.080;9.476;2023-08-17T09:15:37;6.95;;;2.00;;
42478;SDS011;28110;47.080;9.476;2023-08-17T09:18:04;4.67;;;2.00;;
42478;SDS011;28110;47.080;9.476;2023-08-17T09:20:39;2.67;;;1.90;;
42478;SDS011;28110;47.080;9.476;2023-08-17T09:23:09;3.38;;;2.30;;
42478;SDS011;28110;47.080;9.476;2023-08-17T09:25:39;6.37;;;2.47;;
42478;SDS011;28110;47.080;9.476;2023-08-17T09:28:07;3.40;;;2.03;;
42478;SDS011;28110;47.080;9.476;2023-08-17T09:30:53;4.40;;;2.10;;
42478;SDS011;28110;47.080;9.476;2023-08-17T09:33:24;2.28;;;2.00;;
42478;SDS011;28110;47.080;9.476;2023-08-17T09:35:51;4.45;;;2.40;;
42478;SDS011;28110;47.080;9.476;2023-08-17T09:38:18;10.40;;;2.20;;
42478;SDS011;28110;47.080;9.476;2023-08-17T09:40:44;7.40;;;2.42;;
42478;SDS011;28110;47.080;9.476;2023-08-17T09:43:11;4.80;;;2.13;;
42478;SDS011;28110;47.080;9.476;2023-08-17T09:45:38;4.80;;;2.38;;
42478;SDS011;28110;47.080;9.476;2023-08-17T09:48:05;4.50;;;2.63;;
42478;SDS011;28110;47.080;9.476;2023-08-17T09:50:32;8.00;;;2.37;;
42478;SDS011;28110;47.080;9.476;2023-08-17T09:52:58;3.58;;;2.50;;
42478;SDS011;28110;47.080;9.476;2023-08-17T09:55:23;4.63;;;2.43;;
42478;SDS011;28110;47.080;9.476;2023-08-17T09:57:50;8.43;;;2.38;;
42478;SDS011;28110;47.080;9.476;2023-08-17T10:00:16;7.32;;;2.75;;
42478;SDS011;28110;47.080;9.476;2023-08-17T10:02:44;6.40;;;2.72;;
42478;SDS011;28110;47.080;9.476;2023-08-17T10:05:11;3.58;;;2.15;;
42478;SDS011;28110;47.080;9.476;2023-08-17T10:07:38;7.90;;;3.17;;
42478;SDS011;28110;47.080;9.476;2023-08-17T10:10:08;4.65;;;2.13;;
42478;SDS011;28110;47.080;9.476;2023-08-17T10:12:44;4.63;;;2.50;;
42478;SDS011;28110;47.080;9.476;2023-08-17T10:15:14;5.28;;;2.10;;
42478;SDS011;28110;47.080;9.476;2023-08-17T10:17:45;9.27;;;2.85;;
42478;SDS011;28110;47.080;9.476;2023-08-17T10:20:20;4.70;;;2.40;;
42478;SDS011;28110;47.080;9.476;2023-08-17T10:22:51;4.05;;;2.80;;
42478;SDS011;28110;47.080;9.476;2023-08-17T10:25:33;9.38;;;2.67;;
42478;SDS011;28110;47.080;9.476;2023-08-17T10:27:59;4.28;;;2.72;;
42478;SDS011;28110;47.080;9.476;2023-08-17T10:30:28;5.28;;;2.45;;
42478;SDS011;28110;47.080;9.476;2023-08-17T10:32:54;4.10;;;2.20;;
42478;SDS011;28110;47.080;9.476;2023-08-17T10:35:20;4.00;;;2.20;;
42478;SDS011;28110;47.080;9.476;2023-08-17T10:37:46;5.00;;;2.30;;
42478;SDS011;28110;47.080;9.476;2023-08-17T10:40:13;4.90;;;2.42;;
42478;SDS011;28110;47.080;9.476;2023-08-17T10:42:38;4.00;;;2.53;;
42478;SDS011;28110;47.080;9.476;2023-08-17T10:47:57;4.03;;;2.33;;
42478;SDS011;28110;47.080;9.476;2023-08-17T10:50:30;4.32;;;2.30;;
42478;SDS011;28110;47.080;9.476;2023-08-17T10:52:57;3.28;;;2.25;;
42478;SDS011;28110;47.080;9.476;2023-08-17T10:55:38;3.77;;;2.40;;
42478;SDS011;28110;47.080;9.476;2023-08-17T10:58:09;2.88;;;2.20;;
42478;SDS011;28110;47.080;9.476;2023-08-17T11:00:36;3.63;;;2.63;;
42478;SDS011;28110;47.080;9.476;2023-08-17T11:03:09;4.63;;;2.40;;
42478;SDS011;28110;47.080;9.476;2023-08-17T11:05:49;4.40;;;2.22;;
42478;SDS011;28110;47.080;9.476;2023-08-17T11:11:06;4.10;;;2.33;;
42478;SDS011;28110;47.080;9.476;2023-08-17T11:13:36;5.75;;;2.40;;
42478;SDS011;28110;47.080;9.476;2023-08-17T11:16:04;10.85;;;3.03;;
42478;SDS011;28110;47.080;9.476;2023-08-17T11:18:33;6.90;;;3.35;;
42478;SDS011;28110;47.080;9.476;2023-08-17T11:21:00;9.50;;;3.93;;
42478;SDS011;28110;47.080;9.476;2023-08-17T11:23:28;9.23;;;3.58;;
42478;SDS011;28110;47.080;9.476;2023-08-17T11:25:55;6.45;;;3.30;;
42478;SDS011;28110;47.080;9.476;2023-08-17T11:28:21;5.40;;;3.22;;
42478;SDS011;28110;47.080;9.476;2023-08-17T11:30:56;7.97;;;3.75;;
42478;SDS011;28110;47.080;9.476;2023-08-17T11:33:23;9.53;;;3.53;;
42478;SDS011;28110;47.080;9.476;2023-08-17T11:35:50;7.18;;;3.70;;
42478;SDS011;28110;47.080;9.476;2023-08-17T11:38:16;7.87;;;3.63;;
42478;SDS011;28110;47.080;9.476;2023-08-17T11:40:41;5.37;;;3.40;;
42478;SDS011;28110;47.080;9.476;2023-08-17T11:43:07;7.70;;;3.27;;
42478;SDS011;28110;47.080;9.476;2023-08-17T11:45:33;6.80;;;3.63;;
42478;SDS011;28110;47.080;9.476;2023-08-17T11:47:59;5.75;;;2.83;;
42478;SDS011;28110;47.080;9.476;2023-08-17T11:50:24;9.90;;;3.60;;
42478;SDS011;28110;47.080;9.476;2023-08-17T11:52:51;4.72;;;3.70;;
42478;SDS011;28110;47.080;9.476;2023-08-17T11:55:17;6.45;;;3.55;;
42478;SDS011;28110;47.080;9.476;2023-08-17T11:57:44;5.23;;;3.00;;
42478;SDS011;28110;47.080;9.476;2023-08-17T12:00:16;7.20;;;2.90;;
42478;SDS011;28110;47.080;9.476;2023-08-17T12:02:46;6.03;;;3.00;;
42478;SDS011;28110;47.080;9.476;2023-08-17T12:05:13;6.73;;;2.73;;
42478;SDS011;28110;47.080;9.476;2023-08-17T12:07:38;3.22;;;2.78;;
42478;SDS011;28110;47.080;9.476;2023-08-17T12:10:04;5.83;;;2.90;;
42478;SDS011;28110;47.080;9.476;2023-08-17T12:12:30;2.78;;;2.35;;
42478;SDS011;28110;47.080;9.476;2023-08-17T12:14:57;4.23;;;2.73;;
42478;SDS011;28110;47.080;9.476;2023-08-17T12:17:22;2.97;;;2.58;;
42478;SDS011;28110;47.080;9.476;2023-08-17T12:19:48;4.05;;;2.53;;
42478;SDS011;28110;47.080;9.476;2023-08-17T12:22:16;3.27;;;2.80;;
42478;SDS011;28110;47.080;9.476;2023-08-17T12:24:42;4.85;;;2.75;;
42478;SDS011;28110;47.080;9.476;2023-08-17T12:27:08;3.00;;;2.70;;
42478;SDS011;28110;47.080;9.476;2023-08-17T12:29:45;3.97;;;2.88;;
42478;SDS011;28110;47.080;9.476;2023-08-17T12:32:17;5.80;;;3.00;;
42478;SDS011;28110;47.080;9.476;2023-08-17T12:34:44;5.07;;;3.05;;
42478;SDS011;28110;47.080;9.476;2023-08-17T12:37:11;5.05;;;3.10;;
42478;SDS011;28110;47.080;9.476;2023-08-17T12:39:37;4.97;;;2.97;;
42478;SDS011;28110;47.080;9.476;2023-08-17T12:42:04;6.30;;;2.90;;
42478;SDS011;28110;47.080;9.476;2023-08-17T12:44:30;3.57;;;3.00;;
42478;SDS011;28110;47.080;9.476;2023-08-17T12:46:56;5.20;;;3.10;;
42478;SDS011;28110;47.080;9.476;2023-08-17T12:49:22;5.10;;;3.37;;
42478;SDS011;28110;47.080;9.476;2023-08-17T12:51:48;6.10;;;3.33;;
42478;SDS011;28110;47.080;9.476;2023-08-17T12:54:13;7.97;;;4.22;;
42478;SDS011;28110;47.080;9.476;2023-08-17T12:56:39;8.77;;;3.30;;
42478;SDS011;28110;47.080;9.476;2023-08-17T12:59:05;4.90;;;3.17;;
42478;SDS011;28110;47.080;9.476;2023-08-17T13:01:30;3.75;;;3.33;;
42478;SDS011;28110;47.080;9.476;2023-08-17T13:03:56;5.27;;;3.13;;
42478;SDS011;28110;47.080;9.476;2023-08-17T13:06:21;4.73;;;3.10;;
42478;SDS011;28110;47.080;9.476;2023-08-17T13:08:47;4.00;;;2.90;;
42478;SDS011;28110;47.080;9.476;2023-08-17T13:11:12;4.82;;;2.90;;
42478;SDS011;28110;47.080;9.476;2023-08-17T13:13:38;4.20;;;3.10;;
42478;SDS011;28110;47.080;9.476;2023-08-17T13:16:03;4.30;;;3.07;;
42478;SDS011;28110;47.080;9.476;2023-08-17T13:18:29;4.60;;;3.22;;
42478;SDS011;28110;47.080;9.476;2023-08-17T13:20:54;4.60;;;2.70;;
42478;SDS011;28110;47.080;9.476;2023-08-17T13:23:20;3.87;;;3.10;;
42478;SDS011;28110;47.080;9.476;2023-08-17T13:25:45;4.18;;;3.20;;
42478;SDS011;28110;47.080;9.476;2023-08-17T13:28:11;4.63;;;2.80;;
42478;SDS011;28110;47.080;9.476;2023-08-17T13:30:37;7.30;;;3.10;;
42478;SDS011;28110;47.080;9.476;2023-08-17T13:33:03;4.93;;;3.07;;
42478;SDS011;28110;47.080;9.476;2023-08-17T13:35:31;6.47;;;3.40;;
42478;SDS011;28110;47.080;9.476;2023-08-17T13:37:57;7.55;;;3.50;;
42478;SDS011;28110;47.080;9.476;2023-08-17T13:40:22;4.57;;;3.00;;
42478;SDS011;28110;47.080;9.476;2023-08-17T13:42:48;3.83;;;3.00;;
42478;SDS011;28110;47.080;9.476;2023-08-17T13:45:14;5.77;;;3.30;;
42478;SDS011;28110;47.080;9.476;2023-08-17T13:47:39;6.60;;;3.20;;
42478;SDS011;28110;47.080;9.476;2023-08-17T13:50:05;5.23;;;3.70;;
42478;SDS011;28110;47.080;9.476;2023-08-17T13:52:31;12.13;;;4.05;;
42478;SDS011;28110;47.080;9.476;2023-08-17T13:54:56;9.17;;;3.67;;
42478;SDS011;28110;47.080;9.476;2023-08-17T13:57:22;9.00;;;4.10;;
42478;SDS011;28110;47.080;9.476;2023-08-17T13:59:48;4.37;;;3.60;;
42478;SDS011;28110;47.080;9.476;2023-08-17T14:02:14;9.55;;;4.22;;
42478;SDS011;28110;47.080;9.476;2023-08-17T14:04:39;7.37;;;4.00;;
42478;SDS011;28110;47.080;9.476;2023-08-17T14:07:05;6.10;;;3.70;;
42478;SDS011;28110;47.080;9.476;2023-08-17T14:09:30;9.13;;;4.50;;
42478;SDS011;28110;47.080;9.476;2023-08-17T14:11:56;5.67;;;3.50;;
42478;SDS011;28110;47.080;9.476;2023-08-17T14:14:21;6.63;;;4.17;;
42478;SDS011;28110;47.080;9.476;2023-08-17T14:16:47;7.78;;;3.97;;
42478;SDS011;28110;47.080;9.476;2023-08-17T14:19:12;10.67;;;4.00;;
42478;SDS011;28110;47.080;9.476;2023-08-17T14:21:38;6.53;;;3.40;;
42478;SDS011;28110;47.080;9.476;2023-08-17T14:24:03;5.38;;;3.47;;
42478;SDS011;28110;47.080;9.476;2023-08-17T14:26:31;7.23;;;3.33;;
42478;SDS011;28110;47.080;9.476;2023-08-17T14:28:57;10.27;;;3.40;;
42478;SDS011;28110;47.080;9.476;2023-08-17T14:31:22;7.63;;;3.87;;
42478;SDS011;28110;47.080;9.476;2023-08-17T14:33:48;5.57;;;3.67;;
42478;SDS011;28110;47.080;9.476;2023-08-17T14:36:14;8.95;;;3.70;;
42478;SDS011;28110;47.080;9.476;2023-08-17T14:38:40;6.25;;;3.63;;
42478;SDS011;28110;47.080;9.476;2023-08-17T14:41:05;6.60;;;3.50;;
42478;SDS011;28110;47.080;9.476;2023-08-17T14:43:32;9.65;;;4.20;;
42478;SDS011;28110;47.080;9.476;2023-08-17T14:45:58;8.32;;;3.58;;
42478;SDS011;28110;47.080;9.476;2023-08-17T14:48:24;7.33;;;4.00;;
42478;SDS011;28110;47.080;9.476;2023-08-17T14:50:50;10.40;;;3.75;;
42478;SDS011;28110;47.080;9.476;2023-08-17T14:53:16;6.93;;;3.47;;
42478;SDS011;28110;47.080;9.476;2023-08-17T14:55:41;11.35;;;3.75;;